sensor_id;sensor_type;location;lat;lon;timestamp;temperature;humidity
33093;DHT22;19456;46.104;12.908;2023-11-22T00:01:58;6.40;99.90
33093;DHT22;19456;46.104;12.908;2023-11-22T00:04:24;6.30;99.90
33093;DHT22;19456;46.104;12.908;2023-11-22T00:06:50;6.20;99.90
33093;DHT22;19456;46.104;12.908;2023-11-22T00:09:16;6.10;99.90
33093;DHT22;19456;46.104;12.908;2023-11-22T00:11:41;6.40;99.90
33093;DHT22;19456;46.104;12.908;2023-11-22T00:14:07;6.40;99.90
33093;DHT22;19456;46.104;12.908;2023-11-22T00:16:32;6.40;99.90
33093;DHT22;19456;46.104;12.908;2023-11-22T00:18:59;6.30;99.90
33093;DHT22;19456;46.104;12.908;2023-11-22T00:21:25;6.20;99.90
33093;DHT22;19456;46.104;12.908;2023-11-22T00:23:51;6.40;99.90
33093;DHT22;19456;46.104;12.908;2023-11-22T00:26:16;6.60;99.90
33093;DHT22;19456;46.104;12.908;2023-11-22T00:28:42;6.50;99.90
33093;DHT22;19456;46.104;12.908;2023-11-22T00:31:07;6.40;99.90
33093;DHT22;19456;46.104;12.908;2023-11-22T00:33:33;6.30;99.90
33093;DHT22;19456;46.104;12.908;2023-11-22T00:36:00;6.30;99.90
33093;DHT22;19456;46.104;12.908;2023-11-22T00:38:29;6.30;99.90
33093;DHT22;19456;46.104;12.908;2023-11-22T00:40:55;6.20;99.90
33093;DHT22;19456;46.104;12.908;2023-11-22T00:43:22;6.20;99.90
33093;DHT22;19456;46.104;12.908;2023-11-22T00:45:47;6.20;99.90
33093;DHT22;19456;46.104;12.908;2023-11-22T00:48:13;6.20;99.90
33093;DHT22;19456;46.104;12.908;2023-11-22T00:50:38;6.00;99.90
33093;DHT22;19456;46.104;12.908;2023-11-22T00:53:04;6.00;99.90
33093;DHT22;19456;46.104;12.908;2023-11-22T00:55:30;6.10;99.90
33093;DHT22;19456;46.104;12.908;2023-11-22T00:57:56;6.20;99.90
33093;DHT22;19456;46.104;12.908;2023-11-22T01:00:27;6.00;99.90
33093;DHT22;19456;46.104;12.908;2023-11-22T01:02:52;5.90;99.90
33093;DHT22;19456;46.104;12.908;2023-11-22T01:05:18;5.80;99.90
33093;DHT22;19456;46.104;12.908;2023-11-22T01:07:43;6.20;99.90
33093;DHT22;19456;46.104;12.908;2023-11-22T01:10:09;6.40;99.90
33093;DHT22;19456;46.104;12.908;2023-11-22T01:12:35;6.40;99.90
33093;DHT22;19456;46.104;12.908;2023-11-22T01:15:01;6.30;99.90
33093;DHT22;19456;46.104;12.908;2023-11-22T01:17:26;6.10;99.90
33093;DHT22;19456;46.104;12.908;2023-11-22T01:19:52;6.10;99.90
33093;DHT22;19456;46.104;12.908;2023-11-22T01:22:18;6.00;99.90
33093;DHT22;19456;46.104;12.908;2023-11-22T01:24:43;6.20;99.90
33093;DHT22;19456;46.104;12.908;2023-11-22T01:27:09;6.40;99.90
33093;DHT22;19456;46.104;12.908;2023-11-22T01:29:35;6.40;99.90
33093;DHT22;19456;46.104;12.908;2023-11-22T01:32:01;6.40;99.90
33093;DHT22;19456;46.104;12.908;2023-11-22T01:34:28;6.40;99.90
33093;DHT22;19456;46.104;12.908;2023-11-22T01:36:54;6.10;99.90
33093;DHT22;19456;46.104;12.908;2023-11-22T01:39:20;5.90;99.90
33093;DHT22;19456;46.104;12.908;2023-11-22T01:41:46;5.80;99.90
33093;DHT22;19456;46.104;12.908;2023-11-22T01:44:15;5.80;99.90
33093;DHT22;19456;46.104;12.908;2023-11-22T01:46:40;6.00;99.90
33093;DHT22;19456;46.104;12.908;2023-11-22T01:49:08;6.10;99.90
33093;DHT22;19456;46.104;12.908;2023-11-22T01:51:35;6.30;99.90
33093;DHT22;19456;46.104;12.908;2023-11-22T01:54:00;6.50;99.90
33093;DHT22;19456;46.104;12.908;2023-11-22T01:56:26;6.80;99.90
33093;DHT22;19456;46.104;12.908;2023-11-22T01:58:54;6.90;99.90
33093;DHT22;19456;46.104;12.908;2023-11-22T02:01:20;6.80;99.90
33093;DHT22;19456;46.104;12.908;2023-11-22T02:03:45;6.70;99.90
33093;DHT22;19456;46.104;12.908;2023-11-22T02:06:14;6.70;99.90
33093;DHT22;19456;46.104;12.908;2023-11-22T02:08:41;6.70;99.90
33093;DHT22;19456;46.104;12.908;2023-11-22T02:11:08;6.60;99.90
33093;DHT22;19456;46.104;12.908;2023-11-22T02:13:33;6.50;99.90
33093;DHT22;19456;46.104;12.908;2023-11-22T02:15:59;6.70;99.90
33093;DHT22;19456;46.104;12.908;2023-11-22T02:18:26;6.90;99.90
33093;DHT22;19456;46.104;12.908;2023-11-22T02:20:52;7.10;99.90
33093;DHT22;19456;46.104;12.908;2023-11-22T02:23:18;7.30;99.90
33093;DHT22;19456;46.104;12.908;2023-11-22T02:25:43;7.30;99.90
33093;DHT22;19456;46.104;12.908;2023-11-22T02:28:11;7.50;99.90
33093;DHT22;19456;46.104;12.908;2023-11-22T02:30:37;7.70;99.90
33093;DHT22;19456;46.104;12.908;2023-11-22T02:33:02;7.80;99.90
33093;DHT22;19456;46.104;12.908;2023-11-22T02:35:30;7.80;99.90
33093;DHT22;19456;46.104;12.908;2023-11-22T02:37:57;7.90;99.90
33093;DHT22;19456;46.104;12.908;2023-11-22T02:40:23;7.80;99.90
33093;DHT22;19456;46.104;12.908;2023-11-22T02:42:50;7.90;99.90
33093;DHT22;19456;46.104;12.908;2023-11-22T02:45:16;7.80;99.90
33093;DHT22;19456;46.104;12.908;2023-11-22T02:47:43;7.80;99.90
33093;DHT22;19456;46.104;12.908;2023-11-22T02:50:10;7.30;99.90
33093;DHT22;19456;46.104;12.908;2023-11-22T02:52:37;7.20;99.90
33093;DHT22;19456;46.104;12.908;2023-11-22T02:55:03;6.90;99.90
33093;DHT22;19456;46.104;12.908;2023-11-22T02:57:30;6.70;99.90
33093;DHT22;19456;46.104;12.908;2023-11-22T02:59:57;6.90;99.90
33093;DHT22;19456;46.104;12.908;2023-11-22T03:02:22;6.80;99.90
33093;DHT22;19456;46.104;12.908;2023-11-22T03:04:48;6.70;99.90
33093;DHT22;19456;46.104;12.908;2023-11-22T03:07:13;6.70;99.90
33093;DHT22;19456;46.104;12.908;2023-11-22T03:09:40;6.70;99.90
33093;DHT22;19456;46.104;12.908;2023-11-22T03:12:06;6.60;99.90
33093;DHT22;19456;46.104;12.908;2023-11-22T03:14:34;6.90;99.90
33093;DHT22;19456;46.104;12.908;2023-11-22T03:17:00;7.00;99.90
33093;DHT22;19456;46.104;12.908;2023-11-22T03:19:26;7.10;99.90
33093;DHT22;19456;46.104;12.908;2023-11-22T03:21:51;7.30;99.90
33093;DHT22;19456;46.104;12.908;2023-11-22T03:24:17;7.40;99.90
33093;DHT22;19456;46.104;12.908;2023-11-22T03:26:43;7.50;99.90
33093;DHT22;19456;46.104;12.908;2023-11-22T03:29:10;7.80;99.90
33093;DHT22;19456;46.104;12.908;2023-11-22T03:31:36;7.80;99.90
33093;DHT22;19456;46.104;12.908;2023-11-22T03:34:01;7.80;99.90
33093;DHT22;19456;46.104;12.908;2023-11-22T03:36:27;8.00;99.90
33093;DHT22;19456;46.104;12.908;2023-11-22T03:38:52;7.90;99.90
33093;DHT22;19456;46.104;12.908;2023-11-22T03:41:18;7.80;99.90
33093;DHT22;19456;46.104;12.908;2023-11-22T03:43:44;7.70;99.90
33093;DHT22;19456;46.104;12.908;2023-11-22T03:46:09;7.50;99.90
33093;DHT22;19456;46.104;12.908;2023-11-22T03:48:36;7.50;99.90
33093;DHT22;19456;46.104;12.908;2023-11-22T03:51:02;7.30;99.90
33093;DHT22;19456;46.104;12.908;2023-11-22T03:53:28;7.30;99.90
33093;DHT22;19456;46.104;12.908;2023-11-22T03:55:53;7.40;99.90
33093;DHT22;19456;46.104;12.908;2023-11-22T03:58:19;7.40;99.90
33093;DHT22;19456;46.104;12.908;2023-11-22T04:00:44;7.40;99.90
33093;DHT22;19456;46.104;12.908;2023-11-22T04:03:10;7.40;99.90
33093;DHT22;19456;46.104;12.908;2023-11-22T04:05:35;7.40;99.90
33093;DHT22;19456;46.104;12.908;2023-11-22T04:08:01;7.40;99.90
33093;DHT22;19456;46.104;12.908;2023-11-22T04:10:27;7.40;99.90
33093;DHT22;19456;46.104;12.908;2023-11-22T04:12:52;7.50;99.90
33093;DHT22;19456;46.104;12.908;2023-11-22T04:15:18;7.30;99.90
33093;DHT22;19456;46.104;12.908;2023-11-22T04:17:44;7.30;99.90
33093;DHT22;19456;46.104;12.908;2023-11-22T04:20:09;7.30;99.90
33093;DHT22;19456;46.104;12.908;2023-11-22T04:22:44;7.30;99.90
33093;DHT22;19456;46.104;12.908;2023-11-22T04:25:13;7.20;99.90
33093;DHT22;19456;46.104;12.908;2023-11-22T04:27:39;7.10;99.90
33093;DHT22;19456;46.104;12.908;2023-11-22T04:30:08;7.10;99.90
33093;DHT22;19456;46.104;12.908;2023-11-22T04:32:38;7.10;99.90
33093;DHT22;19456;46.104;12.908;2023-11-22T04:35:04;7.20;99.90
33093;DHT22;19456;46.104;12.908;2023-11-22T04:37:30;7.00;99.90
33093;DHT22;19456;46.104;12.908;2023-11-22T04:39:58;7.10;99.90
33093;DHT22;19456;46.104;12.908;2023-11-22T04:42:23;6.90;99.90
33093;DHT22;19456;46.104;12.908;2023-11-22T04:44:49;7.00;99.90
33093;DHT22;19456;46.104;12.908;2023-11-22T04:47:14;6.90;99.90
33093;DHT22;19456;46.104;12.908;2023-11-22T04:49:40;7.00;99.90
33093;DHT22;19456;46.104;12.908;2023-11-22T04:52:06;7.00;99.90
33093;DHT22;19456;46.104;12.908;2023-11-22T04:54:31;7.00;99.90
33093;DHT22;19456;46.104;12.908;2023-11-22T04:56:58;7.00;99.90
33093;DHT22;19456;46.104;12.908;2023-11-22T04:59:23;7.00;99.90
33093;DHT22;19456;46.104;12.908;2023-11-22T05:01:49;7.10;99.90
33093;DHT22;19456;46.104;12.908;2023-11-22T05:04:15;7.00;99.90
33093;DHT22;19456;46.104;12.908;2023-11-22T05:06:40;7.10;99.90
33093;DHT22;19456;46.104;12.908;2023-11-22T05:09:06;6.60;99.90
33093;DHT22;19456;46.104;12.908;2023-11-22T05:11:31;6.20;99.90
33093;DHT22;19456;46.104;12.908;2023-11-22T05:13:57;5.90;99.90
33093;DHT22;19456;46.104;12.908;2023-11-22T05:16:23;5.90;99.90
33093;DHT22;19456;46.104;12.908;2023-11-22T05:18:49;6.20;99.90
33093;DHT22;19456;46.104;12.908;2023-11-22T05:21:15;6.00;99.90
33093;DHT22;19456;46.104;12.908;2023-11-22T05:23:41;5.70;99.90
33093;DHT22;19456;46.104;12.908;2023-11-22T05:26:07;5.70;99.90
33093;DHT22;19456;46.104;12.908;2023-11-22T05:28:33;5.90;99.90
33093;DHT22;19456;46.104;12.908;2023-11-22T05:30:59;6.10;99.90
33093;DHT22;19456;46.104;12.908;2023-11-22T05:33:24;5.90;99.90
33093;DHT22;19456;46.104;12.908;2023-11-22T05:35:50;5.80;99.90
33093;DHT22;19456;46.104;12.908;2023-11-22T05:38:16;5.60;99.90
33093;DHT22;19456;46.104;12.908;2023-11-22T05:40:42;5.50;99.90
33093;DHT22;19456;46.104;12.908;2023-11-22T05:43:08;5.50;99.90
33093;DHT22;19456;46.104;12.908;2023-11-22T05:45:35;5.90;99.90
33093;DHT22;19456;46.104;12.908;2023-11-22T05:48:01;6.10;99.90
33093;DHT22;19456;46.104;12.908;2023-11-22T05:50:27;5.70;99.90
33093;DHT22;19456;46.104;12.908;2023-11-22T05:52:52;5.70;99.90
33093;DHT22;19456;46.104;12.908;2023-11-22T05:55:22;5.70;99.90
33093;DHT22;19456;46.104;12.908;2023-11-22T05:57:48;5.80;99.90
33093;DHT22;19456;46.104;12.908;2023-11-22T06:00:13;5.60;99.90
33093;DHT22;19456;46.104;12.908;2023-11-22T06:02:39;5.70;99.90
33093;DHT22;19456;46.104;12.908;2023-11-22T06:05:05;6.00;99.90
33093;DHT22;19456;46.104;12.908;2023-11-22T06:07:31;6.30;99.90
33093;DHT22;19456;46.104;12.908;2023-11-22T06:09:56;6.60;99.90
33093;DHT22;19456;46.104;12.908;2023-11-22T06:12:22;6.70;99.90
33093;DHT22;19456;46.104;12.908;2023-11-22T06:14:48;6.10;99.90
33093;DHT22;19456;46.104;12.908;2023-11-22T06:17:14;5.80;99.90
33093;DHT22;19456;46.104;12.908;2023-11-22T06:19:42;5.70;99.90
33093;DHT22;19456;46.104;12.908;2023-11-22T06:22:08;5.60;99.90
33093;DHT22;19456;46.104;12.908;2023-11-22T06:24:33;5.50;99.90
33093;DHT22;19456;46.104;12.908;2023-11-22T06:27:01;5.70;99.90
33093;DHT22;19456;46.104;12.908;2023-11-22T06:29:27;6.00;99.90
33093;DHT22;19456;46.104;12.908;2023-11-22T06:31:52;6.00;99.90
33093;DHT22;19456;46.104;12.908;2023-11-22T06:34:19;6.20;99.90
33093;DHT22;19456;46.104;12.908;2023-11-22T06:36:44;6.20;99.90
33093;DHT22;19456;46.104;12.908;2023-11-22T06:39:10;6.40;99.90
33093;DHT22;19456;46.104;12.908;2023-11-22T06:41:41;6.60;99.90
33093;DHT22;19456;46.104;12.908;2023-11-22T06:44:07;6.80;99.90
33093;DHT22;19456;46.104;12.908;2023-11-22T06:46:33;6.80;99.90
33093;DHT22;19456;46.104;12.908;2023-11-22T06:48:58;6.70;99.90
33093;DHT22;19456;46.104;12.908;2023-11-22T06:51:24;6.60;99.90
33093;DHT22;19456;46.104;12.908;2023-11-22T06:53:50;6.70;99.90
33093;DHT22;19456;46.104;12.908;2023-11-22T06:56:17;7.10;99.90
33093;DHT22;19456;46.104;12.908;2023-11-22T06:58:42;7.40;99.90
33093;DHT22;19456;46.104;12.908;2023-11-22T07:01:08;7.60;99.90
33093;DHT22;19456;46.104;12.908;2023-11-22T07:03:36;7.80;99.90
33093;DHT22;19456;46.104;12.908;2023-11-22T07:06:03;8.10;99.90
33093;DHT22;19456;46.104;12.908;2023-11-22T07:08:29;8.30;99.90
33093;DHT22;19456;46.104;12.908;2023-11-22T07:10:56;8.50;99.90
33093;DHT22;19456;46.104;12.908;2023-11-22T07:13:22;8.70;99.90
33093;DHT22;19456;46.104;12.908;2023-11-22T07:15:51;9.00;99.90
33093;DHT22;19456;46.104;12.908;2023-11-22T07:18:17;9.10;99.90
33093;DHT22;19456;46.104;12.908;2023-11-22T07:20:42;9.40;99.90
33093;DHT22;19456;46.104;12.908;2023-11-22T07:23:08;9.50;99.90
33093;DHT22;19456;46.104;12.908;2023-11-22T07:25:38;9.50;99.90
33093;DHT22;19456;46.104;12.908;2023-11-22T07:28:04;9.60;99.90
33093;DHT22;19456;46.104;12.908;2023-11-22T07:30:30;9.60;99.90
33093;DHT22;19456;46.104;12.908;2023-11-22T07:32:58;9.80;99.90
33093;DHT22;19456;46.104;12.908;2023-11-22T07:35:26;9.90;99.90
33093;DHT22;19456;46.104;12.908;2023-11-22T07:37:54;9.90;99.90
33093;DHT22;19456;46.104;12.908;2023-11-22T07:40:20;10.10;99.90
33093;DHT22;19456;46.104;12.908;2023-11-22T07:42:48;10.20;99.90
33093;DHT22;19456;46.104;12.908;2023-11-22T07:45:14;10.40;99.90
33093;DHT22;19456;46.104;12.908;2023-11-22T07:47:41;10.50;99.90
33093;DHT22;19456;46.104;12.908;2023-11-22T07:50:08;10.80;99.90
33093;DHT22;19456;46.104;12.908;2023-11-22T07:52:34;11.00;99.90
33093;DHT22;19456;46.104;12.908;2023-11-22T07:55:00;11.20;99.90
33093;DHT22;19456;46.104;12.908;2023-11-22T07:57:25;11.20;99.90
33093;DHT22;19456;46.104;12.908;2023-11-22T07:59:51;11.30;99.90
33093;DHT22;19456;46.104;12.908;2023-11-22T08:02:24;11.40;99.90
33093;DHT22;19456;46.104;12.908;2023-11-22T08:04:51;11.50;99.90
33093;DHT22;19456;46.104;12.908;2023-11-22T08:07:18;11.60;99.90
33093;DHT22;19456;46.104;12.908;2023-11-22T08:09:47;11.80;99.90
33093;DHT22;19456;46.104;12.908;2023-11-22T08:12:13;11.90;99.90
33093;DHT22;19456;46.104;12.908;2023-11-22T08:14:39;12.00;99.90
33093;DHT22;19456;46.104;12.908;2023-11-22T08:17:05;12.30;99.90
33093;DHT22;19456;46.104;12.908;2023-11-22T08:19:31;12.50;99.90
33093;DHT22;19456;46.104;12.908;2023-11-22T08:21:57;12.50;99.90
33093;DHT22;19456;46.104;12.908;2023-11-22T08:24:23;12.80;99.90
33093;DHT22;19456;46.104;12.908;2023-11-22T08:26:49;13.00;99.90
33093;DHT22;19456;46.104;12.908;2023-11-22T08:29:15;13.00;99.90
33093;DHT22;19456;46.104;12.908;2023-11-22T08:31:41;13.10;99.90
33093;DHT22;19456;46.104;12.908;2023-11-22T08:34:07;13.20;99.90
33093;DHT22;19456;46.104;12.908;2023-11-22T08:36:32;13.20;99.90
33093;DHT22;19456;46.104;12.908;2023-11-22T08:39:05;13.40;99.90
33093;DHT22;19456;46.104;12.908;2023-11-22T08:41:33;13.40;99.90
33093;DHT22;19456;46.104;12.908;2023-11-22T08:43:58;13.40;99.90
33093;DHT22;19456;46.104;12.908;2023-11-22T08:46:25;13.40;99.90
33093;DHT22;19456;46.104;12.908;2023-11-22T08:48:51;13.40;99.90
33093;DHT22;19456;46.104;12.908;2023-11-22T08:51:17;13.50;99.90
33093;DHT22;19456;46.104;12.908;2023-11-22T08:53:43;13.40;99.90
33093;DHT22;19456;46.104;12.908;2023-11-22T08:56:12;13.60;99.90
33093;DHT22;19456;46.104;12.908;2023-11-22T08:58:38;13.60;99.90
33093;DHT22;19456;46.104;12.908;2023-11-22T09:01:04;13.70;99.90
33093;DHT22;19456;46.104;12.908;2023-11-22T09:03:31;13.70;99.90
33093;DHT22;19456;46.104;12.908;2023-11-22T09:05:58;13.70;99.90
33093;DHT22;19456;46.104;12.908;2023-11-22T09:08:33;13.70;99.90
33093;DHT22;19456;46.104;12.908;2023-11-22T09:11:02;13.80;99.90
33093;DHT22;19456;46.104;12.908;2023-11-22T09:13:31;13.90;99.90
33093;DHT22;19456;46.104;12.908;2023-11-22T09:15:57;13.90;99.90
33093;DHT22;19456;46.104;12.908;2023-11-22T09:18:23;14.00;99.90
33093;DHT22;19456;46.104;12.908;2023-11-22T09:20:49;14.10;99.90
33093;DHT22;19456;46.104;12.908;2023-11-22T09:23:15;14.10;98.70
33093;DHT22;19456;46.104;12.908;2023-11-22T09:25:40;14.20;98.40
33093;DHT22;19456;46.104;12.908;2023-11-22T09:28:06;14.20;98.30
33093;DHT22;19456;46.104;12.908;2023-11-22T09:30:34;14.20;98.10
33093;DHT22;19456;46.104;12.908;2023-11-22T09:33:01;14.30;98.30
33093;DHT22;19456;46.104;12.908;2023-11-22T09:35:27;14.30;98.60
33093;DHT22;19456;46.104;12.908;2023-11-22T09:38:04;14.40;96.60
33093;DHT22;19456;46.104;12.908;2023-11-22T09:40:32;14.50;95.60
33093;DHT22;19456;46.104;12.908;2023-11-22T09:42:58;14.50;95.80
33093;DHT22;19456;46.104;12.908;2023-11-22T09:45:24;14.60;96.80
33093;DHT22;19456;46.104;12.908;2023-11-22T09:47:50;14.60;96.50
33093;DHT22;19456;46.104;12.908;2023-11-22T09:50:20;14.70;96.30
33093;DHT22;19456;46.104;12.908;2023-11-22T09:52:50;14.70;96.50
33093;DHT22;19456;46.104;12.908;2023-11-22T09:55:17;14.70;96.40
33093;DHT22;19456;46.104;12.908;2023-11-22T09:57:52;14.90;96.30
33093;DHT22;19456;46.104;12.908;2023-11-22T10:00:25;15.00;95.70
33093;DHT22;19456;46.104;12.908;2023-11-22T10:02:57;15.10;95.70
33093;DHT22;19456;46.104;12.908;2023-11-22T10:05:28;15.10;93.60
33093;DHT22;19456;46.104;12.908;2023-11-22T10:07:58;15.10;94.20
33093;DHT22;19456;46.104;12.908;2023-11-22T10:10:38;15.20;94.30
33093;DHT22;19456;46.104;12.908;2023-11-22T10:13:06;15.30;94.30
33093;DHT22;19456;46.104;12.908;2023-11-22T10:15:31;15.30;93.60
33093;DHT22;19456;46.104;12.908;2023-11-22T10:17:58;15.30;93.80
33093;DHT22;19456;46.104;12.908;2023-11-22T10:20:24;15.30;93.40
33093;DHT22;19456;46.104;12.908;2023-11-22T10:22:51;15.30;93.10
33093;DHT22;19456;46.104;12.908;2023-11-22T10:25:17;15.40;92.70
33093;DHT22;19456;46.104;12.908;2023-11-22T10:27:44;15.40;92.70
33093;DHT22;19456;46.104;12.908;2023-11-22T10:30:11;15.50;92.30
33093;DHT22;19456;46.104;12.908;2023-11-22T10:32:37;15.60;92.20
33093;DHT22;19456;46.104;12.908;2023-11-22T10:35:05;15.70;91.70
33093;DHT22;19456;46.104;12.908;2023-11-22T10:37:31;15.70;91.50
33093;DHT22;19456;46.104;12.908;2023-11-22T10:39:57;15.90;91.20
33093;DHT22;19456;46.104;12.908;2023-11-22T10:42:23;16.00;91.60
33093;DHT22;19456;46.104;12.908;2023-11-22T10:44:49;16.10;91.30
33093;DHT22;19456;46.104;12.908;2023-11-22T10:47:15;16.30;90.20
33093;DHT22;19456;46.104;12.908;2023-11-22T10:49:44;16.50;88.10
33093;DHT22;19456;46.104;12.908;2023-11-22T10:52:10;16.70;86.00
33093;DHT22;19456;46.104;12.908;2023-11-22T10:54:44;17.00;84.60
33093;DHT22;19456;46.104;12.908;2023-11-22T10:57:11;17.10;79.90
33093;DHT22;19456;46.104;12.908;2023-11-22T10:59:41;17.60;82.30
33093;DHT22;19456;46.104;12.908;2023-11-22T11:02:12;17.90;80.20
33093;DHT22;19456;46.104;12.908;2023-11-22T11:04:42;18.30;77.70
33093;DHT22;19456;46.104;12.908;2023-11-22T11:07:09;18.40;77.60
33093;DHT22;19456;46.104;12.908;2023-11-22T11:09:37;18.60;76.10
33093;DHT22;19456;46.104;12.908;2023-11-22T11:12:04;18.70;76.10
33093;DHT22;19456;46.104;12.908;2023-11-22T11:14:31;18.90;70.90
33093;DHT22;19456;46.104;12.908;2023-11-22T11:16:58;18.90;71.50
33093;DHT22;19456;46.104;12.908;2023-11-22T11:19:23;19.20;71.50
33093;DHT22;19456;46.104;12.908;2023-11-22T11:21:50;19.50;73.50
33093;DHT22;19456;46.104;12.908;2023-11-22T11:24:19;20.00;73.50
33093;DHT22;19456;46.104;12.908;2023-11-22T11:26:48;20.00;69.10
33093;DHT22;19456;46.104;12.908;2023-11-22T11:29:32;20.20;69.30
33093;DHT22;19456;46.104;12.908;2023-11-22T11:31:58;20.20;66.10
33093;DHT22;19456;46.104;12.908;2023-11-22T11:34:25;20.20;62.90
33093;DHT22;19456;46.104;12.908;2023-11-22T11:36:55;20.30;63.70
33093;DHT22;19456;46.104;12.908;2023-11-22T11:39:25;20.40;61.00
33093;DHT22;19456;46.104;12.908;2023-11-22T11:41:54;20.60;62.30
33093;DHT22;19456;46.104;12.908;2023-11-22T11:44:33;21.20;63.50
33093;DHT22;19456;46.104;12.908;2023-11-22T11:47:08;21.70;60.70
33093;DHT22;19456;46.104;12.908;2023-11-22T11:49:34;22.00;58.30
33093;DHT22;19456;46.104;12.908;2023-11-22T11:52:02;21.80;58.10
33093;DHT22;19456;46.104;12.908;2023-11-22T11:54:28;21.90;57.20
33093;DHT22;19456;46.104;12.908;2023-11-22T11:56:58;22.10;58.10
33093;DHT22;19456;46.104;12.908;2023-11-22T11:59:24;21.80;56.20
33093;DHT22;19456;46.104;12.908;2023-11-22T12:01:52;21.90;57.10
33093;DHT22;19456;46.104;12.908;2023-11-22T12:04:18;21.60;56.10
33093;DHT22;19456;46.104;12.908;2023-11-22T12:06:44;21.90;55.90
33093;DHT22;19456;46.104;12.908;2023-11-22T12:09:09;22.50;55.50
33093;DHT22;19456;46.104;12.908;2023-11-22T12:11:35;23.40;53.90
33093;DHT22;19456;46.104;12.908;2023-11-22T12:14:02;23.90;52.70
33093;DHT22;19456;46.104;12.908;2023-11-22T12:16:29;24.00;51.30
33093;DHT22;19456;46.104;12.908;2023-11-22T12:18:55;24.70;50.20
33093;DHT22;19456;46.104;12.908;2023-11-22T12:21:23;25.10;50.30
33093;DHT22;19456;46.104;12.908;2023-11-22T12:23:49;24.20;50.20
33093;DHT22;19456;46.104;12.908;2023-11-22T12:26:15;25.10;48.50
33093;DHT22;19456;46.104;12.908;2023-11-22T12:28:41;25.10;48.10
33093;DHT22;19456;46.104;12.908;2023-11-22T12:31:08;24.60;47.60
33093;DHT22;19456;46.104;12.908;2023-11-22T12:33:35;24.60;47.40
33093;DHT22;19456;46.104;12.908;2023-11-22T12:36:02;24.80;47.20
33093;DHT22;19456;46.104;12.908;2023-11-22T12:38:29;25.20;46.50
33093;DHT22;19456;46.104;12.908;2023-11-22T12:40:57;25.10;45.80
33093;DHT22;19456;46.104;12.908;2023-11-22T12:43:23;24.50;45.90
33093;DHT22;19456;46.104;12.908;2023-11-22T12:45:58;24.70;46.30
33093;DHT22;19456;46.104;12.908;2023-11-22T12:48:24;24.70;45.40
33093;DHT22;19456;46.104;12.908;2023-11-22T12:50:51;24.90;45.60
33093;DHT22;19456;46.104;12.908;2023-11-22T12:53:17;25.60;45.30
33093;DHT22;19456;46.104;12.908;2023-11-22T12:55:47;25.70;44.20
33093;DHT22;19456;46.104;12.908;2023-11-22T12:58:16;25.50;43.90
33093;DHT22;19456;46.104;12.908;2023-11-22T13:00:46;25.50;43.60
33093;DHT22;19456;46.104;12.908;2023-11-22T13:03:13;26.10;43.90
33093;DHT22;19456;46.104;12.908;2023-11-22T13:05:39;26.00;42.70
33093;DHT22;19456;46.104;12.908;2023-11-22T13:08:05;25.40;43.60
33093;DHT22;19456;46.104;12.908;2023-11-22T13:10:31;25.80;43.10
33093;DHT22;19456;46.104;12.908;2023-11-22T13:12:57;26.20;42.90
33093;DHT22;19456;46.104;12.908;2023-11-22T13:15:24;26.20;43.60
33093;DHT22;19456;46.104;12.908;2023-11-22T13:17:52;26.10;43.90
33093;DHT22;19456;46.104;12.908;2023-11-22T13:20:24;26.20;44.00
33093;DHT22;19456;46.104;12.908;2023-11-22T13:22:51;25.80;43.80
33093;DHT22;19456;46.104;12.908;2023-11-22T13:25:16;25.70;43.80
33093;DHT22;19456;46.104;12.908;2023-11-22T13:27:47;25.90;44.00
33093;DHT22;19456;46.104;12.908;2023-11-22T13:30:16;25.80;43.90
33093;DHT22;19456;46.104;12.908;2023-11-22T13:32:45;25.40;43.60
33093;DHT22;19456;46.104;12.908;2023-11-22T13:35:12;25.00;43.00
33093;DHT22;19456;46.104;12.908;2023-11-22T13:37:40;25.30;42.70
33093;DHT22;19456;46.104;12.908;2023-11-22T13:40:10;25.50;43.10
33093;DHT22;19456;46.104;12.908;2023-11-22T13:42:46;25.40;42.80
33093;DHT22;19456;46.104;12.908;2023-11-22T13:45:13;25.60;42.10
33093;DHT22;19456;46.104;12.908;2023-11-22T13:47:52;25.30;42.80
33093;DHT22;19456;46.104;12.908;2023-11-22T13:50:22;25.00;43.00
33093;DHT22;19456;46.104;12.908;2023-11-22T13:52:49;25.00;42.80
33093;DHT22;19456;46.104;12.908;2023-11-22T13:55:15;25.00;42.40
33093;DHT22;19456;46.104;12.908;2023-11-22T13:57:43;24.30;43.50
33093;DHT22;19456;46.104;12.908;2023-11-22T14:00:10;22.90;45.20
33093;DHT22;19456;46.104;12.908;2023-11-22T14:02:47;21.40;46.70
33093;DHT22;19456;46.104;12.908;2023-11-22T14:05:13;20.00;49.10
33093;DHT22;19456;46.104;12.908;2023-11-22T14:07:41;19.20;51.40
33093;DHT22;19456;46.104;12.908;2023-11-22T14:10:07;18.50;53.00
33093;DHT22;19456;46.104;12.908;2023-11-22T14:12:32;18.00;53.90
33093;DHT22;19456;46.104;12.908;2023-11-22T14:14:58;17.70;55.10
33093;DHT22;19456;46.104;12.908;2023-11-22T14:17:24;17.50;55.60
33093;DHT22;19456;46.104;12.908;2023-11-22T14:19:51;17.30;56.00
33093;DHT22;19456;46.104;12.908;2023-11-22T14:22:16;17.20;56.50
33093;DHT22;19456;46.104;12.908;2023-11-22T14:24:46;17.10;56.30
33093;DHT22;19456;46.104;12.908;2023-11-22T14:27:12;17.00;56.90
33093;DHT22;19456;46.104;12.908;2023-11-22T14:29:38;16.90;57.40
33093;DHT22;19456;46.104;12.908;2023-11-22T14:32:03;16.70;57.80
33093;DHT22;19456;46.104;12.908;2023-11-22T14:34:29;16.60;57.40
33093;DHT22;19456;46.104;12.908;2023-11-22T14:36:55;16.50;58.40
33093;DHT22;19456;46.104;12.908;2023-11-22T14:39:21;16.30;59.10
33093;DHT22;19456;46.104;12.908;2023-11-22T14:41:47;16.30;59.10
33093;DHT22;19456;46.104;12.908;2023-11-22T14:44:12;16.20;59.70
33093;DHT22;19456;46.104;12.908;2023-11-22T14:46:38;16.10;59.80
33093;DHT22;19456;46.104;12.908;2023-11-22T14:49:04;16.00;59.60
33093;DHT22;19456;46.104;12.908;2023-11-22T14:51:32;16.00;60.20
33093;DHT22;19456;46.104;12.908;2023-11-22T14:53:59;15.90;61.00
33093;DHT22;19456;46.104;12.908;2023-11-22T14:56:24;15.80;60.10
33093;DHT22;19456;46.104;12.908;2023-11-22T14:58:50;15.70;60.50
33093;DHT22;19456;46.104;12.908;2023-11-22T15:01:25;15.70;60.40
33093;DHT22;19456;46.104;12.908;2023-11-22T15:03:51;15.60;60.50
33093;DHT22;19456;46.104;12.908;2023-11-22T15:06:19;15.50;60.80
33093;DHT22;19456;46.104;12.908;2023-11-22T15:08:45;15.50;60.50
33093;DHT22;19456;46.104;12.908;2023-11-22T15:11:11;15.50;60.50
33093;DHT22;19456;46.104;12.908;2023-11-22T15:13:38;15.40;61.40
33093;DHT22;19456;46.104;12.908;2023-11-22T15:16:03;15.40;62.40
33093;DHT22;19456;46.104;12.908;2023-11-22T15:18:46;15.30;62.90
33093;DHT22;19456;46.104;12.908;2023-11-22T15:21:12;15.10;63.50